sensor_id;sensor_type;location;lat;lon;timestamp;pressure;altitude;pressure_sealevel;temperature;humidity
33163;BME280;29282;45.656;11.302;2024-01-06T00:02:16;96960.19;;;17.86;49.05
33163;BME280;29282;45.656;11.302;2024-01-06T00:04:42;96956.66;;;17.85;49.06
33163;BME280;29282;45.656;11.302;2024-01-06T00:07:07;96955.84;;;17.84;49.02
33163;BME280;29282;45.656;11.302;2024-01-06T00:09:33;96945.25;;;17.83;49.03
33163;BME280;29282;45.656;11.302;2024-01-06T00:11:58;96947.22;;;17.82;49.21
33163;BME280;29282;45.656;11.302;2024-01-06T00:14:24;96946.44;;;17.82;49.05
33163;BME280;29282;45.656;11.302;2024-01-06T00:16:49;96944.81;;;17.81;49.16
33163;BME280;29282;45.656;11.302;2024-01-06T00:19:15;96933.06;;;17.80;49.13
33163;BME280;29282;45.656;11.302;2024-01-06T00:21:43;96938.13;;;17.78;49.32
33163;BME280;29282;45.656;11.302;2024-01-06T00:24:08;96940.88;;;17.78;49.03
33163;BME280;29282;45.656;11.302;2024-01-06T00:26:34;96945.53;;;17.78;49.24
33163;BME280;29282;45.656;11.302;2024-01-06T00:28:59;96939.28;;;17.77;49.07
33163;BME280;29282;45.656;11.302;2024-01-06T00:31:25;96925.13;;;17.75;49.28
33163;BME280;29282;45.656;11.302;2024-01-06T00:33:50;96925.13;;;17.75;49.14
33163;BME280;29282;45.656;11.302;2024-01-06T00:36:15;96929.00;;;17.74;49.11
33163;BME280;29282;45.656;11.302;2024-01-06T00:38:41;96916.47;;;17.73;49.20
33163;BME280;29282;45.656;11.302;2024-01-06T00:41:06;96916.47;;;17.73;49.10
33163;BME280;29282;45.656;11.302;2024-01-06T00:43:32;96912.50;;;17.71;49.12
33163;BME280;29282;45.656;11.302;2024-01-06T00:45:57;96911.38;;;17.72;49.09
33163;BME280;29282;45.656;11.302;2024-01-06T00:48:23;96898.03;;;17.70;49.33
33163;BME280;29282;45.656;11.302;2024-01-06T00:50:48;96899.59;;;17.71;49.27
33163;BME280;29282;45.656;11.302;2024-01-06T00:53:14;96903.50;;;17.70;48.97
33163;BME280;29282;45.656;11.302;2024-01-06T00:55:39;96893.72;;;17.69;49.12
33163;BME280;29282;45.656;11.302;2024-01-06T00:58:05;96894.06;;;17.68;49.13
33163;BME280;29282;45.656;11.302;2024-01-06T01:00:30;96892.13;;;17.68;49.26
33163;BME280;29282;45.656;11.302;2024-01-06T01:02:56;96901.50;;;17.67;49.27
33163;BME280;29282;45.656;11.302;2024-01-06T01:05:22;96889.75;;;17.67;49.27
33163;BME280;29282;45.656;11.302;2024-01-06T01:07:47;96897.53;;;17.65;49.15
33163;BME280;29282;45.656;11.302;2024-01-06T01:10:13;96899.47;;;17.64;49.14
33163;BME280;29282;45.656;11.302;2024-01-06T01:12:38;96885.78;;;17.64;49.21
33163;BME280;29282;45.656;11.302;2024-01-06T01:15:04;96885.78;;;17.64;49.24
33163;BME280;29282;45.656;11.302;2024-01-06T01:17:30;96879.50;;;17.64;49.30
33163;BME280;29282;45.656;11.302;2024-01-06T01:19:56;96880.69;;;17.63;49.24
33163;BME280;29282;45.656;11.302;2024-01-06T01:22:21;96884.59;;;17.61;49.18
33163;BME280;29282;45.656;11.302;2024-01-06T01:24:46;96882.97;;;17.60;49.16
33163;BME280;29282;45.656;11.302;2024-01-06T01:27:12;96887.66;;;17.60;49.20
33163;BME280;29282;45.656;11.302;2024-01-06T01:29:37;96875.94;;;17.59;49.29
33163;BME280;29282;45.656;11.302;2024-01-06T01:32:03;96868.88;;;17.58;49.28
33163;BME280;29282;45.656;11.302;2024-01-06T01:34:29;96875.53;;;17.61;49.06
33163;BME280;29282;45.656;11.302;2024-01-06T01:36:54;96875.13;;;17.59;49.20
33163;BME280;29282;45.656;11.302;2024-01-06T01:39:20;96879.00;;;17.58;49.16
33163;BME280;29282;45.656;11.302;2024-01-06T01:41:46;96874.69;;;17.57;49.08
33163;BME280;29282;45.656;11.302;2024-01-06T01:44:11;96873.13;;;17.56;49.08
33163;BME280;29282;45.656;11.302;2024-01-06T01:46:37;96866.47;;;17.57;49.05
33163;BME280;29282;45.656;11.302;2024-01-06T01:49:06;96868.44;;;17.56;49.27
33163;BME280;29282;45.656;11.302;2024-01-06T01:51:34;96864.13;;;17.55;49.17
33163;BME280;29282;45.656;11.302;2024-01-06T01:54:04;96860.59;;;17.55;49.11
33163;BME280;29282;45.656;11.302;2024-01-06T01:56:31;96861.72;;;17.54;49.31
33163;BME280;29282;45.656;11.302;2024-01-06T01:59:06;96848.81;;;17.54;49.22
33163;BME280;29282;45.656;11.302;2024-01-06T02:01:33;96858.19;;;17.53;48.97
33163;BME280;29282;45.656;11.302;2024-01-06T02:03:59;96853.09;;;17.52;49.40
33163;BME280;29282;45.656;11.302;2024-01-06T02:06:24;96848.75;;;17.51;49.21
33163;BME280;29282;45.656;11.302;2024-01-06T02:08:50;96846.81;;;17.51;49.17
33163;BME280;29282;45.656;11.302;2024-01-06T02:11:15;96840.13;;;17.49;49.31
33163;BME280;29282;45.656;11.302;2024-01-06T02:13:44;96838.19;;;17.49;49.13
33163;BME280;29282;45.656;11.302;2024-01-06T02:16:09;96827.56;;;17.48;49.08
33163;BME280;29282;45.656;11.302;2024-01-06T02:18:35;96829.97;;;17.49;49.17
33163;BME280;29282;45.656;11.302;2024-01-06T02:21:01;96820.19;;;17.48;49.21
33163;BME280;29282;45.656;11.302;2024-01-06T02:23:28;96824.84;;;17.48;49.25
33163;BME280;29282;45.656;11.302;2024-01-06T02:25:54;96827.56;;;17.48;49.08
33163;BME280;29282;45.656;11.302;2024-01-06T02:28:20;96818.56;;;17.47;49.15
33163;BME280;29282;45.656;11.302;2024-01-06T02:30:45;96819.38;;;17.48;49.19
33163;BME280;29282;45.656;11.302;2024-01-06T02:33:11;96817.78;;;17.47;49.16
33163;BME280;29282;45.656;11.302;2024-01-06T02:35:36;96811.88;;;17.45;48.96
33163;BME280;29282;45.656;11.302;2024-01-06T02:38:02;96818.97;;;17.46;49.05
33163;BME280;29282;45.656;11.302;2024-01-06T02:40:28;96818.16;;;17.45;49.14
33163;BME280;29282;45.656;11.302;2024-01-06T02:42:54;96815.78;;;17.44;49.18
33163;BME280;29282;45.656;11.302;2024-01-06T02:45:19;96808.34;;;17.44;49.03
33163;BME280;29282;45.656;11.302;2024-01-06T02:47:45;96807.13;;;17.42;49.30
33163;BME280;29282;45.656;11.302;2024-01-06T02:50:10;96812.25;;;17.43;49.24
33163;BME280;29282;45.656;11.302;2024-01-06T02:52:36;96807.94;;;17.42;49.29
33163;BME280;29282;45.656;11.302;2024-01-06T02:55:01;96796.16;;;17.42;49.34
33163;BME280;29282;45.656;11.302;2024-01-06T02:57:29;96797.78;;;17.43;49.11
33163;BME280;29282;45.656;11.302;2024-01-06T02:59:54;96794.59;;;17.41;49.33
33163;BME280;29282;45.656;11.302;2024-01-06T03:02:20;96802.47;;;17.42;49.16
33163;BME280;29282;45.656;11.302;2024-01-06T03:04:45;96796.16;;;17.42;49.05
33163;BME280;29282;45.656;11.302;2024-01-06T03:07:11;96793.44;;;17.42;49.30
33163;BME280;29282;45.656;11.302;2024-01-06T03:09:36;96786.03;;;17.42;49.14
33163;BME280;29282;45.656;11.302;2024-01-06T03:12:05;96783.66;;;17.41;49.03
33163;BME280;29282;45.656;11.302;2024-01-06T03:14:31;96782.84;;;17.40;49.33
33163;BME280;29282;45.656;11.302;2024-01-06T03:17:00;96774.66;;;17.40;49.18
33163;BME280;29282;45.656;11.302;2024-01-06T03:19:25;96770.34;;;17.39;49.14
33163;BME280;29282;45.656;11.302;2024-01-06T03:21:53;96773.84;;;17.40;49.27
33163;BME280;29282;45.656;11.302;2024-01-06T03:24:19;96766.81;;;17.38;49.16
33163;BME280;29282;45.656;11.302;2024-01-06T03:26:44;96773.06;;;17.39;49.04
33163;BME280;29282;45.656;11.302;2024-01-06T03:29:12;96771.13;;;17.40;49.11
33163;BME280;29282;45.656;11.302;2024-01-06T03:31:42;96769.56;;;17.38;48.97
33163;BME280;29282;45.656;11.302;2024-01-06T03:34:08;96762.84;;;17.36;49.10
33163;BME280;29282;45.656;11.302;2024-01-06T03:36:34;96756.59;;;17.35;49.24
33163;BME280;29282;45.656;11.302;2024-01-06T03:38:59;96751.91;;;17.36;49.26
33163;BME280;29282;45.656;11.302;2024-01-06T03:41:25;96751.91;;;17.36;49.07
33163;BME280;29282;45.656;11.302;2024-01-06T03:43:50;96758.16;;;17.36;49.06
33163;BME280;29282;45.656;11.302;2024-01-06T03:46:16;96754.63;;;17.36;49.29
33163;BME280;29282;45.656;11.302;2024-01-06T03:48:41;96754.63;;;17.36;49.08
33163;BME280;29282;45.656;11.302;2024-01-06T03:51:07;96753.03;;;17.35;49.11
33163;BME280;29282;45.656;11.302;2024-01-06T03:53:33;96751.47;;;17.34;49.07
33163;BME280;29282;45.656;11.302;2024-01-06T03:55:59;96754.19;;;17.34;49.02
33163;BME280;29282;45.656;11.302;2024-01-06T03:58:24;96735.41;;;17.32;49.08
33163;BME280;29282;45.656;11.302;2024-01-06T04:00:50;96736.19;;;17.33;49.10
33163;BME280;29282;45.656;11.302;2024-01-06T04:03:15;96738.94;;;17.33;49.31
33163;BME280;29282;45.656;11.302;2024-01-06T04:05:41;96739.28;;;17.31;49.02
33163;BME280;29282;45.656;11.302;2024-01-06T04:08:06;96729.50;;;17.30;49.21
33163;BME280;29282;45.656;11.302;2024-01-06T04:10:31;96739.66;;;17.30;49.33
33163;BME280;29282;45.656;11.302;2024-01-06T04:12:57;96727.94;;;17.29;49.12
33163;BME280;29282;45.656;11.302;2024-01-06T04:15:22;96727.94;;;17.29;49.31
33163;BME280;29282;45.656;11.302;2024-01-06T04:17:49;96720.84;;;17.28;49.34
33163;BME280;29282;45.656;11.302;2024-01-06T04:20:14;96731.81;;;17.28;49.41
33163;BME280;29282;45.656;11.302;2024-01-06T04:22:43;96734.97;;;17.30;49.02
33163;BME280;29282;45.656;11.302;2024-01-06T04:25:10;96739.66;;;17.30;49.05
33163;BME280;29282;45.656;11.302;2024-01-06T04:27:35;96748.22;;;17.28;49.17
33163;BME280;29282;45.656;11.302;2024-01-06T04:30:01;96743.13;;;17.27;49.20
33163;BME280;29282;45.656;11.302;2024-01-06T04:32:27;96744.28;;;17.26;49.22
33163;BME280;29282;45.656;11.302;2024-01-06T04:34:55;96745.06;;;17.26;49.16
33163;BME280;29282;45.656;11.302;2024-01-06T04:37:22;96748.97;;;17.25;49.21
33163;BME280;29282;45.656;11.302;2024-01-06T04:39:49;96744.28;;;17.26;49.20
33163;BME280;29282;45.656;11.302;2024-01-06T04:42:14;96743.50;;;17.25;49.18
33163;BME280;29282;45.656;11.302;2024-01-06T04:44:40;96743.84;;;17.24;49.05
33163;BME280;29282;45.656;11.302;2024-01-06T04:47:05;96748.16;;;17.25;49.07
33163;BME280;29282;45.656;11.302;2024-01-06T04:49:31;96750.13;;;17.24;49.31
33163;BME280;29282;45.656;11.302;2024-01-06T04:51:56;96750.50;;;17.23;49.12
33163;BME280;29282;45.656;11.302;2024-01-06T04:54:22;96750.50;;;17.23;49.24
33163;BME280;29282;45.656;11.302;2024-01-06T04:56:47;96753.22;;;17.23;49.27
33163;BME280;29282;45.656;11.302;2024-01-06T04:59:13;96757.09;;;17.22;49.02
33163;BME280;29282;45.656;11.302;2024-01-06T05:01:38;96739.91;;;17.21;49.13
33163;BME280;29282;45.656;11.302;2024-01-06T05:04:04;96737.16;;;17.21;49.05
33163;BME280;29282;45.656;11.302;2024-01-06T05:06:30;96739.09;;;17.21;49.23
33163;BME280;29282;45.656;11.302;2024-01-06T05:08:55;96741.06;;;17.20;49.15
33163;BME280;29282;45.656;11.302;2024-01-06T05:11:21;96740.28;;;17.20;48.98
33163;BME280;29282;45.656;11.302;2024-01-06T05:13:46;96734.41;;;17.21;49.05
33163;BME280;29282;45.656;11.302;2024-01-06T05:16:12;96743.78;;;17.20;49.17
33163;BME280;29282;45.656;11.302;2024-01-06T05:18:37;96737.09;;;17.18;49.34
33163;BME280;29282;45.656;11.302;2024-01-06T05:21:03;96733.56;;;17.17;49.24
33163;BME280;29282;45.656;11.302;2024-01-06T05:23:29;96736.75;;;17.19;49.20
33163;BME280;29282;45.656;11.302;2024-01-06T05:25:54;96734.72;;;17.16;49.44
33163;BME280;29282;45.656;11.302;2024-01-06T05:28:20;96735.53;;;17.17;49.30
33163;BME280;29282;45.656;11.302;2024-01-06T05:30:45;96729.25;;;17.16;49.25
33163;BME280;29282;45.656;11.302;2024-01-06T05:33:12;96732.78;;;17.17;49.12
33163;BME280;29282;45.656;11.302;2024-01-06T05:35:41;96737.09;;;17.18;49.15
33163;BME280;29282;45.656;11.302;2024-01-06T05:38:06;96730.41;;;17.15;49.18
33163;BME280;29282;45.656;11.302;2024-01-06T05:40:32;96731.22;;;17.16;49.18
33163;BME280;29282;45.656;11.302;2024-01-06T05:42:57;96730.41;;;17.15;49.12
33163;BME280;29282;45.656;11.302;2024-01-06T05:45:25;96733.13;;;17.15;49.04
33163;BME280;29282;45.656;11.302;2024-01-06T05:47:51;96737.81;;;17.14;49.27
33163;BME280;29282;45.656;11.302;2024-01-06T05:50:16;96731.56;;;17.14;49.16
33163;BME280;29282;45.656;11.302;2024-01-06T05:52:42;96734.28;;;17.14;49.19
33163;BME280;29282;45.656;11.302;2024-01-06T05:55:08;96733.50;;;17.13;49.17
33163;BME280;29282;45.656;11.302;2024-01-06T05:57:37;96739.34;;;17.12;49.30
33163;BME280;29282;45.656;11.302;2024-01-06T06:00:02;96742.09;;;17.12;49.35
33163;BME280;29282;45.656;11.302;2024-01-06T06:02:28;96740.94;;;17.13;49.10
33163;BME280;29282;45.656;11.302;2024-01-06T06:04:53;96740.50;;;17.11;49.19
33163;BME280;29282;45.656;11.302;2024-01-06T06:07:22;96736.19;;;17.10;49.03
33163;BME280;29282;45.656;11.302;2024-01-06T06:09:47;96743.22;;;17.11;49.39
33163;BME280;29282;45.656;11.302;2024-01-06T06:12:13;96736.19;;;17.10;49.32
33163;BME280;29282;45.656;11.302;2024-01-06T06:14:39;96733.44;;;17.10;49.26
33163;BME280;29282;45.656;11.302;2024-01-06T06:17:05;96737.34;;;17.09;49.31
33163;BME280;29282;45.656;11.302;2024-01-06T06:19:30;96740.09;;;17.09;49.27
33163;BME280;29282;45.656;11.302;2024-01-06T06:21:56;96739.25;;;17.08;49.15
33163;BME280;29282;45.656;11.302;2024-01-06T06:24:21;96731.44;;;17.07;49.32
33163;BME280;29282;45.656;11.302;2024-01-06T06:26:47;96733.00;;;17.08;49.34
33163;BME280;29282;45.656;11.302;2024-01-06T06:29:12;96736.53;;;17.08;49.14
33163;BME280;29282;45.656;11.302;2024-01-06T06:31:38;96735.75;;;17.08;49.05
33163;BME280;29282;45.656;11.302;2024-01-06T06:34:04;96733.38;;;17.06;49.39
33163;BME280;29282;45.656;11.302;2024-01-06T06:36:29;96729.06;;;17.05;49.44
33163;BME280;29282;45.656;11.302;2024-01-06T06:38:55;96736.13;;;17.06;49.32
33163;BME280;29282;45.656;11.302;2024-01-06T06:41:23;96738.47;;;17.08;49.13
33163;BME280;29282;45.656;11.302;2024-01-06T06:43:48;96730.66;;;17.06;49.39
33163;BME280;29282;45.656;11.302;2024-01-06T06:46:14;96736.91;;;17.07;49.12
33163;BME280;29282;45.656;11.302;2024-01-06T06:48:39;96729.47;;;17.07;49.37
33163;BME280;29282;45.656;11.302;2024-01-06T06:51:05;96723.66;;;17.09;49.20
33163;BME280;29282;45.656;11.302;2024-01-06T06:53:31;96726.41;;;17.09;49.25
33163;BME280;29282;45.656;11.302;2024-01-06T06:55:56;96726.03;;;17.10;49.07
33163;BME280;29282;45.656;11.302;2024-01-06T06:58:22;96724.44;;;17.09;49.19
33163;BME280;29282;45.656;11.302;2024-01-06T07:00:47;96722.84;;;17.08;49.39
33163;BME280;29282;45.656;11.302;2024-01-06T07:03:13;96723.66;;;17.09;49.22
33163;BME280;29282;45.656;11.302;2024-01-06T07:05:39;96727.97;;;17.10;49.86
33163;BME280;29282;45.656;11.302;2024-01-06T07:08:05;96727.97;;;17.10;49.39
33163;BME280;29282;45.656;11.302;2024-01-06T07:10:30;96733.44;;;17.10;49.18
33163;BME280;29282;45.656;11.302;2024-01-06T07:12:56;96726.41;;;17.09;49.29
33163;BME280;29282;45.656;11.302;2024-01-06T07:15:21;96726.41;;;17.09;49.12
33163;BME280;29282;45.656;11.302;2024-01-06T07:17:47;96730.72;;;17.10;49.12
33163;BME280;29282;45.656;11.302;2024-01-06T07:20:12;96736.19;;;17.10;49.13
33163;BME280;29282;45.656;11.302;2024-01-06T07:22:37;96735.41;;;17.09;49.33
33163;BME280;29282;45.656;11.302;2024-01-06T07:25:03;96729.94;;;17.09;49.18
33163;BME280;29282;45.656;11.302;2024-01-06T07:27:29;96729.13;;;17.09;49.08
33163;BME280;29282;45.656;11.302;2024-01-06T07:29:54;96733.44;;;17.10;49.03
33163;BME280;29282;45.656;11.302;2024-01-06T07:32:22;96735.41;;;17.09;49.20
33163;BME280;29282;45.656;11.302;2024-01-06T07:34:47;96736.19;;;17.10;49.47
33163;BME280;29282;45.656;11.302;2024-01-06T07:37:13;96737.34;;;17.09;49.25
33163;BME280;29282;45.656;11.302;2024-01-06T07:39:38;96742.81;;;17.09;49.22
33163;BME280;29282;45.656;11.302;2024-01-06T07:42:07;96743.66;;;17.13;49.08
33163;BME280;29282;45.656;11.302;2024-01-06T07:44:33;96744.97;;;17.19;48.95
33163;BME280;29282;45.656;11.302;2024-01-06T07:46:58;96755.25;;;17.26;48.57
33163;BME280;29282;45.656;11.302;2024-01-06T07:49:24;96751.78;;;17.29;48.72
33163;BME280;29282;45.656;11.302;2024-01-06T07:51:49;96751.19;;;17.39;48.59
33163;BME280;29282;45.656;11.302;2024-01-06T07:54:15;96749.47;;;17.54;48.07
33163;BME280;29282;45.656;11.302;2024-01-06T07:56:40;96750.78;;;17.64;47.88
33163;BME280;29282;45.656;11.302;2024-01-06T07:59:06;96753.19;;;17.65;47.92
33163;BME280;29282;45.656;11.302;2024-01-06T08:01:35;96749.75;;;17.72;48.15
33163;BME280;29282;45.656;11.302;2024-01-06T08:04:00;96753.00;;;17.77;47.62
33163;BME280;29282;45.656;11.302;2024-01-06T08:06:26;96747.16;;;17.79;47.64
33163;BME280;29282;45.656;11.302;2024-01-06T08:08:51;96751.91;;;17.82;47.72
33163;BME280;29282;45.656;11.302;2024-01-06T08:11:17;96745.31;;;17.87;47.86
33163;BME280;29282;45.656;11.302;2024-01-06T08:13:42;96738.38;;;17.93;47.83
33163;BME280;29282;45.656;11.302;2024-01-06T08:16:09;96746.22;;;17.94;47.62
33163;BME280;29282;45.656;11.302;2024-01-06T08:18:35;96747.03;;;17.95;47.65
33163;BME280;29282;45.656;11.302;2024-01-06T08:21:00;96752.50;;;17.95;47.68
33163;BME280;29282;45.656;11.302;2024-01-06T08:23:25;96755.59;;;17.93;47.87
33163;BME280;29282;45.656;11.302;2024-01-06T08:25:51;96764.97;;;17.92;47.72
33163;BME280;29282;45.656;11.302;2024-01-06T08:28:17;96761.88;;;17.94;47.88
33163;BME280;29282;45.656;11.302;2024-01-06T08:30:44;96754.81;;;17.93;48.12
33163;BME280;29282;45.656;11.302;2024-01-06T08:33:09;96761.88;;;17.94;47.96
33163;BME280;29282;45.656;11.302;2024-01-06T08:35:38;96762.34;;;17.99;48.13
33163;BME280;29282;45.656;11.302;2024-01-06T08:38:06;96760.19;;;18.12;47.66
33163;BME280;29282;45.656;11.302;2024-01-06T08:40:35;96768.19;;;18.24;47.26
33163;BME280;29282;45.656;11.302;2024-01-06T08:43:02;96770.19;;;18.27;47.30
33163;BME280;29282;45.656;11.302;2024-01-06T08:45:28;96761.59;;;18.29;47.29
33163;BME280;29282;45.656;11.302;2024-01-06T08:47:53;96760.53;;;18.37;47.14
33163;BME280;29282;45.656;11.302;2024-01-06T08:50:19;96759.00;;;18.40;47.29
33163;BME280;29282;45.656;11.302;2024-01-06T08:52:44;96759.44;;;18.42;47.07
33163;BME280;29282;45.656;11.302;2024-01-06T08:55:10;96757.53;;;18.46;47.17
33163;BME280;29282;45.656;11.302;2024-01-06T08:57:35;96758.78;;;18.52;46.98
33163;BME280;29282;45.656;11.302;2024-01-06T09:00:03;96753.38;;;18.59;46.81
33163;BME280;29282;45.656;11.302;2024-01-06T09:02:29;96760.09;;;18.62;46.89
33163;BME280;29282;45.656;11.302;2024-01-06T09:04:57;96755.75;;;18.61;46.80
33163;BME280;29282;45.656;11.302;2024-01-06T09:07:23;96763.34;;;18.71;47.09
33163;BME280;29282;45.656;11.302;2024-01-06T09:09:48;96761.34;;;18.68;47.01
33163;BME280;29282;45.656;11.302;2024-01-06T09:12:13;96756.72;;;18.72;46.71
33163;BME280;29282;45.656;11.302;2024-01-06T09:14:39;96755.19;;;18.74;46.85
33163;BME280;29282;45.656;11.302;2024-01-06T09:17:05;96760.28;;;18.76;46.91
33163;BME280;29282;45.656;11.302;2024-01-06T09:19:31;96756.38;;;18.77;47.04
33163;BME280;29282;45.656;11.302;2024-01-06T09:21:56;96763.84;;;18.80;47.12
33163;BME280;29282;45.656;11.302;2024-01-06T09:24:25;96755.97;;;18.75;47.17
33163;BME280;29282;45.656;11.302;2024-01-06T09:26:50;96762.53;;;18.70;47.48
33163;BME280;29282;45.656;11.302;2024-01-06T09:29:16;96763.69;;;18.69;47.47
33163;BME280;29282;45.656;11.302;2024-01-06T09:31:42;96757.50;;;18.72;47.41
33163;BME280;29282;45.656;11.302;2024-01-06T09:34:11;96759.38;;;18.68;47.59
33163;BME280;29282;45.656;11.302;2024-01-06T09:36:37;96750.78;;;18.70;47.82
33163;BME280;29282;45.656;11.302;2024-01-06T09:39:03;96753.91;;;18.68;47.80
33163;BME280;29282;45.656;11.302;2024-01-06T09:41:30;96743.19;;;18.60;47.88
33163;BME280;29282;45.656;11.302;2024-01-06T09:43:56;96748.28;;;18.58;48.16
33163;BME280;29282;45.656;11.302;2024-01-06T09:46:26;96741.59;;;18.55;48.07
33163;BME280;29282;45.656;11.302;2024-01-06T09:48:53;96736.06;;;18.51;48.30
33163;BME280;29282;45.656;11.302;2024-01-06T09:51:19;96732.16;;;18.52;48.32
33163;BME280;29282;45.656;11.302;2024-01-06T09:53:59;96726.22;;;18.50;48.72
33163;BME280;29282;45.656;11.302;2024-01-06T09:56:26;96731.72;;;18.50;48.53
33163;BME280;29282;45.656;11.302;2024-01-06T09:58:53;96731.72;;;18.50;48.49
33163;BME280;29282;45.656;11.302;2024-01-06T10:01:19;96734.84;;;18.49;48.49
33163;BME280;29282;45.656;11.302;2024-01-06T10:03:45;96727.78;;;18.48;48.40
33163;BME280;29282;45.656;11.302;2024-01-06T10:06:11;96724.22;;;18.47;48.51
33163;BME280;29282;45.656;11.302;2024-01-06T10:08:38;96725.03;;;18.48;48.49
33163;BME280;29282;45.656;11.302;2024-01-06T10:11:06;96712.47;;;18.47;48.52
33163;BME280;29282;45.656;11.302;2024-01-06T10:13:32;96711.72;;;18.50;48.45
33163;BME280;29282;45.656;11.302;2024-01-06T10:15:58;96714.88;;;18.48;48.36
33163;BME280;29282;45.656;11.302;2024-01-06T10:18:25;96712.13;;;18.48;48.44
33163;BME280;29282;45.656;11.302;2024-01-06T10:20:51;96703.09;;;18.48;48.43
33163;BME280;29282;45.656;11.302;2024-01-06T10:23:19;96701.50;;;18.47;48.46
33163;BME280;29282;45.656;11.302;2024-01-06T10:25:47;96701.50;;;18.47;48.45
33163;BME280;29282;45.656;11.302;2024-01-06T10:28:12;96693.72;;;18.49;48.37
33163;BME280;29282;45.656;11.302;2024-01-06T10:30:39;96697.75;;;18.59;48.13
33163;BME280;29282;45.656;11.302;2024-01-06T10:33:09;96696.97;;;18.58;48.19
33163;BME280;29282;45.656;11.302;2024-01-06T10:35:36;96699.31;;;18.60;48.10
33163;BME280;29282;45.656;11.302;2024-01-06T10:38:02;96693.03;;;18.59;48.30
33163;BME280;29282;45.656;11.302;2024-01-06T10:40:28;96682.09;;;18.63;48.29
33163;BME280;29282;45.656;11.302;2024-01-06T10:42:55;96681.69;;;18.61;48.35
33163;BME280;29282;45.656;11.302;2024-01-06T10:45:23;96684.44;;;18.61;48.35
33163;BME280;29282;45.656;11.302;2024-01-06T10:47:49;96677.00;;;18.61;48.37
33163;BME280;29282;45.656;11.302;2024-01-06T10:50:17;96679.75;;;18.61;48.17
33163;BME280;29282;45.656;11.302;2024-01-06T10:52:43;96678.19;;;18.64;47.90
33163;BME280;29282;45.656;11.302;2024-01-06T10:55:11;96678.22;;;18.67;48.06
33163;BME280;29282;45.656;11.302;2024-01-06T10:57:43;96677.09;;;18.68;47.93
33163;BME280;29282;45.656;11.302;2024-01-06T11:00:09;96674.75;;;18.70;48.27
33163;BME280;29282;45.656;11.302;2024-01-06T11:02:35;96671.66;;;18.72;47.96
33163;BME280;29282;45.656;11.302;2024-01-06T11:05:01;96667.38;;;18.74;47.91
33163;BME280;29282;45.656;11.302;2024-01-06T11:07:28;96662.50;;;18.94;47.72
33163;BME280;29282;45.656;11.302;2024-01-06T11:09:57;96671.19;;;19.04;47.49
33163;BME280;29282;45.656;11.302;2024-01-06T11:12:23;96662.06;;;19.37;46.63
33163;BME280;29282;45.656;11.302;2024-01-06T11:14:51;96661.59;;;19.24;47.06
33163;BME280;29282;45.656;11.302;2024-01-06T11:17:57;96663.91;;;19.22;47.05
33163;BME280;29282;45.656;11.302;2024-01-06T11:20:24;96658.63;;;19.02;47.48
33163;BME280;29282;45.656;11.302;2024-01-06T11:22:52;96650.38;;;18.99;47.46
33163;BME280;29282;45.656;11.302;2024-01-06T11:25:22;96651.09;;;18.92;47.81
33163;BME280;29282;45.656;11.302;2024-01-06T11:27:49;96647.16;;;18.90;47.87
33163;BME280;29282;45.656;11.302;2024-01-06T11:30:22;96651.06;;;18.89;47.87
33163;BME280;29282;45.656;11.302;2024-01-06T11:32:50;96642.47;;;18.94;47.74
33163;BME280;29282;45.656;11.302;2024-01-06T11:35:17;96641.66;;;18.90;47.78
33163;BME280;29282;45.656;11.302;2024-01-06T11:40:10;96639.66;;;18.87;48.02
33163;BME280;29282;45.656;11.302;2024-01-06T11:42:44;96640.84;;;18.86;47.88
33163;BME280;29282;45.656;11.302;2024-01-06T11:45:09;96634.25;;;18.94;47.87
33163;BME280;29282;45.656;11.302;2024-01-06T11:47:36;96634.03;;;19.13;47.38
33163;BME280;29282;45.656;11.302;2024-01-06T11:50:03;96633.50;;;19.45;46.49
33163;BME280;29282;45.656;11.302;2024-01-06T11:52:33;96627.97;;;19.38;46.97
33163;BME280;29282;45.656;11.302;2024-01-06T11:54:59;96629.84;;;19.30;47.10
33163;BME280;29282;45.656;11.302;2024-01-06T11:57:27;96635.25;;;19.19;47.24
33163;BME280;29282;45.656;11.302;2024-01-06T11:59:53;96630.88;;;19.11;47.49
33163;BME280;29282;45.656;11.302;2024-01-06T12:02:21;96624.63;;;19.11;47.46
33163;BME280;29282;45.656;11.302;2024-01-06T12:04:53;96628.09;;;19.04;47.70
33163;BME280;29282;45.656;11.302;2024-01-06T12:07:22;96623.34;;;19.01;47.82
33163;BME280;29282;45.656;11.302;2024-01-06T12:09:48;96626.84;;;18.98;47.84
33163;BME280;29282;45.656;11.302;2024-01-06T12:12:17;96618.97;;;18.96;47.86
33163;BME280;29282;45.656;11.302;2024-01-06T12:14:43;96613.50;;;18.96;47.79
33163;BME280;29282;45.656;11.302;2024-01-06T12:17:10;96611.13;;;18.95;47.90
33163;BME280;29282;45.656;11.302;2024-01-06T12:19:35;96614.28;;;18.97;48.23
33163;BME280;29282;45.656;11.302;2024-01-06T12:22:01;96605.69;;;18.98;47.76
33163;BME280;29282;45.656;11.302;2024-01-06T12:24:28;96604.47;;;18.96;47.76
33163;BME280;29282;45.656;11.302;2024-01-06T12:26:57;96605.66;;;18.95;47.83
33163;BME280;29282;45.656;11.302;2024-01-06T12:29:26;96609.53;;;18.94;47.88
33163;BME280;29282;45.656;11.302;2024-01-06T12:31:53;96602.47;;;18.93;47.90
33163;BME280;29282;45.656;11.302;2024-01-06T12:34:20;96603.28;;;18.93;48.17
33163;BME280;29282;45.656;11.302;2024-01-06T12:36:46;96600.16;;;18.95;48.00
33163;BME280;29282;45.656;11.302;2024-01-06T12:39:12;96600.53;;;18.93;48.02
33163;BME280;29282;45.656;11.302;2024-01-06T12:41:42;96597.78;;;18.93;48.39
33163;BME280;29282;45.656;11.302;2024-01-06T12:44:11;96595.03;;;18.93;48.26
33163;BME280;29282;45.656;11.302;2024-01-06T12:46:38;96596.22;;;18.92;47.90
33163;BME280;29282;45.656;11.302;2024-01-06T12:49:03;96593.47;;;18.92;48.01